Accueil
METAR-TAF:

METAR-TAF

Aéroports :

Aéroport international de Koweït

Koweït, Koweït

latitude: 29-13N, longitude: 047-59E, altitude: 55 m

Observation

Le bulletin a été fait il y a 32 minutes, à 19:00 UTC
Vent 3 kt de sud/sud-ouest
Température 38°C
Humidité 19%
Pression 998 hPa
Visibilité: 7000 m

METAR: OKKK 201900Z 21003KT 7000 NSC 38/10 Q0998 NOSIG

Heure: 22:32 (19:32 UTC)

Prévision

Le bulletin a été fait il y a 2 heures et 32 minutes, à 17:00 UTC
Prévision valable du 20 à 18 UTC au 21 à 24 UTC
Vent 12 kt de nord-ouest
Visibilité: 7000 m
Temporairement
du 20 à 18 UTC au 20 à 21 UTC
Vent 3 kt de direction variable

TAF: OKKK 201700Z 2018/2124 32012KT 7000 NSC TEMPO 2018/2021 VRB03KT

Observations et prévisions météorologiques de plus de 4000 aéroports (messages METAR et TAF).

Les stations disponibles sont représentées par des disques jaunes et rouges sur la carte.

Passer la souris dessus pour voir le nom de la station.

Cliquer dessus pour voir les observations et prévisions météorologiques.

Pour changer de carte: cliquez sur les boutons verts avec une croix noire pour zoomer, sur le bouton vert avec un tiret pour effectuer un zoom arrière, ou sur les flèches vertes pour les cartes adjacentes.


METAR-TAF: